sensor_id;sensor_type;location;lat;lon;timestamp;P1;durP1;ratioP1;P2;durP2;ratioP2
3795;SDS011;1913;50.660;7.834;2023-06-22T00:00:52;13.53;;;12.10;;
3795;SDS011;1913;50.660;7.834;2023-06-22T00:03:18;15.73;;;12.90;;
3795;SDS011;1913;50.660;7.834;2023-06-22T00:05:45;14.67;;;12.00;;
3795;SDS011;1913;50.660;7.834;2023-06-22T00:08:11;11.83;;;10.60;;
3795;SDS011;1913;50.660;7.834;2023-06-22T00:10:37;15.50;;;11.30;;
3795;SDS011;1913;50.660;7.834;2023-06-22T00:13:03;12.80;;;10.60;;
3795;SDS011;1913;50.660;7.834;2023-06-22T00:15:29;11.63;;;10.20;;
3795;SDS011;1913;50.660;7.834;2023-06-22T00:17:54;14.40;;;11.17;;
3795;SDS011;1913;50.660;7.834;2023-06-22T00:20:22;13.00;;;10.53;;
3795;SDS011;1913;50.660;7.834;2023-06-22T00:22:47;19.70;;;11.37;;
3795;SDS011;1913;50.660;7.834;2023-06-22T00:25:13;13.90;;;11.10;;
3795;SDS011;1913;50.660;7.834;2023-06-22T00:27:38;12.03;;;10.80;;
3795;SDS011;1913;50.660;7.834;2023-06-22T00:30:04;14.43;;;11.27;;
3795;SDS011;1913;50.660;7.834;2023-06-22T00:32:30;15.03;;;10.80;;
3795;SDS011;1913;50.660;7.834;2023-06-22T00:34:55;14.30;;;10.57;;
3795;SDS011;1913;50.660;7.834;2023-06-22T00:37:21;12.37;;;10.30;;
3795;SDS011;1913;50.660;7.834;2023-06-22T00:39:50;14.40;;;11.00;;
3795;SDS011;1913;50.660;7.834;2023-06-22T00:42:16;12.93;;;10.57;;
3795;SDS011;1913;50.660;7.834;2023-06-22T00:44:41;14.33;;;11.47;;
3795;SDS011;1913;50.660;7.834;2023-06-22T00:47:07;12.90;;;11.37;;
3795;SDS011;1913;50.660;7.834;2023-06-22T00:49:32;17.87;;;11.10;;
3795;SDS011;1913;50.660;7.834;2023-06-22T00:51:58;12.60;;;11.30;;
3795;SDS011;1913;50.660;7.834;2023-06-22T00:54:24;11.80;;;10.33;;
3795;SDS011;1913;50.660;7.834;2023-06-22T00:56:51;12.53;;;11.23;;
3795;SDS011;1913;50.660;7.834;2023-06-22T00:59:20;12.80;;;10.70;;
3795;SDS011;1913;50.660;7.834;2023-06-22T01:01:45;15.83;;;11.53;;
3795;SDS011;1913;50.660;7.834;2023-06-22T01:04:11;14.47;;;11.50;;
3795;SDS011;1913;50.660;7.834;2023-06-22T01:06:38;13.40;;;10.83;;
3795;SDS011;1913;50.660;7.834;2023-06-22T01:09:19;14.50;;;11.50;;
3795;SDS011;1913;50.660;7.834;2023-06-22T01:11:57;12.40;;;11.10;;
3795;SDS011;1913;50.660;7.834;2023-06-22T01:14:37;12.70;;;11.40;;
3795;SDS011;1913;50.660;7.834;2023-06-22T01:17:08;12.10;;;10.80;;
3795;SDS011;1913;50.660;7.834;2023-06-22T01:19:44;13.17;;;11.77;;
3795;SDS011;1913;50.660;7.834;2023-06-22T01:22:20;12.73;;;10.97;;
3795;SDS011;1913;50.660;7.834;2023-06-22T01:27:28;14.50;;;11.30;;
3795;SDS011;1913;50.660;7.834;2023-06-22T01:30:02;13.23;;;11.23;;
3795;SDS011;1913;50.660;7.834;2023-06-22T01:32:31;12.20;;;11.00;;
3795;SDS011;1913;50.660;7.834;2023-06-22T01:34:58;13.50;;;11.50;;
3795;SDS011;1913;50.660;7.834;2023-06-22T01:37:26;13.37;;;11.63;;
3795;SDS011;1913;50.660;7.834;2023-06-22T01:39:54;13.70;;;11.73;;
3795;SDS011;1913;50.660;7.834;2023-06-22T01:42:21;20.93;;;12.80;;
3795;SDS011;1913;50.660;7.834;2023-06-22T01:44:48;19.90;;;12.50;;
3795;SDS011;1913;50.660;7.834;2023-06-22T01:47:15;16.17;;;13.00;;
3795;SDS011;1913;50.660;7.834;2023-06-22T01:49:40;13.10;;;11.73;;
3795;SDS011;1913;50.660;7.834;2023-06-22T01:52:06;14.90;;;12.43;;
3795;SDS011;1913;50.660;7.834;2023-06-22T01:54:32;13.37;;;11.90;;
3795;SDS011;1913;50.660;7.834;2023-06-22T01:56:58;13.50;;;11.87;;
3795;SDS011;1913;50.660;7.834;2023-06-22T01:59:25;13.90;;;12.37;;
3795;SDS011;1913;50.660;7.834;2023-06-22T02:02:09;16.57;;;11.87;;
3795;SDS011;1913;50.660;7.834;2023-06-22T02:04:44;20.27;;;10.93;;
3795;SDS011;1913;50.660;7.834;2023-06-22T02:07:14;17.40;;;11.97;;
3795;SDS011;1913;50.660;7.834;2023-06-22T02:09:44;16.33;;;11.83;;
3795;SDS011;1913;50.660;7.834;2023-06-22T02:12:12;12.60;;;11.17;;
3795;SDS011;1913;50.660;7.834;2023-06-22T02:14:42;14.00;;;11.33;;
3795;SDS011;1913;50.660;7.834;2023-06-22T02:17:08;15.80;;;12.23;;
3795;SDS011;1913;50.660;7.834;2023-06-22T02:19:38;21.97;;;12.83;;
3795;SDS011;1913;50.660;7.834;2023-06-22T02:22:05;14.17;;;12.67;;
3795;SDS011;1913;50.660;7.834;2023-06-22T02:24:31;17.77;;;14.67;;
3795;SDS011;1913;50.660;7.834;2023-06-22T02:26:59;16.13;;;14.00;;
3795;SDS011;1913;50.660;7.834;2023-06-22T02:29:25;17.37;;;14.37;;
3795;SDS011;1913;50.660;7.834;2023-06-22T02:31:52;17.10;;;14.30;;
3795;SDS011;1913;50.660;7.834;2023-06-22T02:34:17;16.37;;;14.70;;
3795;SDS011;1913;50.660;7.834;2023-06-22T02:36:47;19.43;;;16.10;;
3795;SDS011;1913;50.660;7.834;2023-06-22T02:39:18;17.53;;;15.30;;
3795;SDS011;1913;50.660;7.834;2023-06-22T02:41:43;19.57;;;17.03;;
3795;SDS011;1913;50.660;7.834;2023-06-22T02:44:09;19.83;;;17.83;;
3795;SDS011;1913;50.660;7.834;2023-06-22T02:46:35;21.97;;;17.10;;
3795;SDS011;1913;50.660;7.834;2023-06-22T02:49:01;19.53;;;17.43;;
3795;SDS011;1913;50.660;7.834;2023-06-22T02:51:26;20.43;;;16.90;;
3795;SDS011;1913;50.660;7.834;2023-06-22T02:53:52;22.07;;;19.73;;
3795;SDS011;1913;50.660;7.834;2023-06-22T02:56:22;24.53;;;18.67;;
3795;SDS011;1913;50.660;7.834;2023-06-22T02:58:50;22.50;;;20.17;;
3795;SDS011;1913;50.660;7.834;2023-06-22T03:01:16;23.27;;;20.80;;
3795;SDS011;1913;50.660;7.834;2023-06-22T03:03:41;24.07;;;20.23;;
3795;SDS011;1913;50.660;7.834;2023-06-22T03:06:07;25.97;;;21.23;;
3795;SDS011;1913;50.660;7.834;2023-06-22T03:08:32;29.00;;;20.27;;
3795;SDS011;1913;50.660;7.834;2023-06-22T03:10:58;29.40;;;21.50;;
3795;SDS011;1913;50.660;7.834;2023-06-22T03:13:24;23.83;;;21.23;;
3795;SDS011;1913;50.660;7.834;2023-06-22T03:15:49;31.20;;;21.70;;
3795;SDS011;1913;50.660;7.834;2023-06-22T03:18:14;26.40;;;22.90;;
3795;SDS011;1913;50.660;7.834;2023-06-22T03:20:40;29.93;;;24.03;;
3795;SDS011;1913;50.660;7.834;2023-06-22T03:23:06;29.63;;;24.50;;
3795;SDS011;1913;50.660;7.834;2023-06-22T03:25:31;23.97;;;20.67;;
3795;SDS011;1913;50.660;7.834;2023-06-22T03:27:58;23.70;;;20.40;;
3795;SDS011;1913;50.660;7.834;2023-06-22T03:30:24;28.30;;;23.57;;
3795;SDS011;1913;50.660;7.834;2023-06-22T03:32:49;28.13;;;22.53;;
3795;SDS011;1913;50.660;7.834;2023-06-22T03:35:14;23.70;;;21.20;;
3795;SDS011;1913;50.660;7.834;2023-06-22T03:37:40;28.90;;;20.63;;
3795;SDS011;1913;50.660;7.834;2023-06-22T03:40:06;23.77;;;20.50;;
3795;SDS011;1913;50.660;7.834;2023-06-22T03:42:33;27.10;;;21.83;;
3795;SDS011;1913;50.660;7.834;2023-06-22T03:45:00;24.83;;;20.57;;
3795;SDS011;1913;50.660;7.834;2023-06-22T03:47:26;26.93;;;21.30;;
3795;SDS011;1913;50.660;7.834;2023-06-22T03:49:51;26.23;;;21.90;;
3795;SDS011;1913;50.660;7.834;2023-06-22T03:52:20;27.63;;;22.73;;
3795;SDS011;1913;50.660;7.834;2023-06-22T03:54:46;29.20;;;22.90;;
3795;SDS011;1913;50.660;7.834;2023-06-22T03:57:12;25.87;;;21.37;;
3795;SDS011;1913;50.660;7.834;2023-06-22T03:59:37;26.90;;;22.10;;
3795;SDS011;1913;50.660;7.834;2023-06-22T04:02:03;27.57;;;21.80;;
3795;SDS011;1913;50.660;7.834;2023-06-22T04:04:28;25.63;;;21.40;;
3795;SDS011;1913;50.660;7.834;2023-06-22T04:06:54;23.53;;;19.83;;
3795;SDS011;1913;50.660;7.834;2023-06-22T04:09:19;23.63;;;20.43;;
3795;SDS011;1913;50.660;7.834;2023-06-22T04:11:46;22.77;;;20.07;;
3795;SDS011;1913;50.660;7.834;2023-06-22T04:14:12;25.83;;;21.10;;
3795;SDS011;1913;50.660;7.834;2023-06-22T04:16:37;25.73;;;19.37;;
3795;SDS011;1913;50.660;7.834;2023-06-22T04:19:03;22.73;;;19.70;;
3795;SDS011;1913;50.660;7.834;2023-06-22T04:21:28;22.73;;;20.20;;
3795;SDS011;1913;50.660;7.834;2023-06-22T04:23:54;27.30;;;18.77;;
3795;SDS011;1913;50.660;7.834;2023-06-22T04:26:19;25.03;;;18.30;;
3795;SDS011;1913;50.660;7.834;2023-06-22T04:28:46;20.20;;;17.97;;
3795;SDS011;1913;50.660;7.834;2023-06-22T04:31:17;20.00;;;17.63;;
3795;SDS011;1913;50.660;7.834;2023-06-22T04:33:45;19.90;;;16.80;;
3795;SDS011;1913;50.660;7.834;2023-06-22T04:36:10;18.03;;;16.10;;
3795;SDS011;1913;50.660;7.834;2023-06-22T04:38:38;21.20;;;16.07;;
3795;SDS011;1913;50.660;7.834;2023-06-22T04:41:04;19.00;;;16.20;;
3795;SDS011;1913;50.660;7.834;2023-06-22T04:43:29;17.77;;;15.87;;
3795;SDS011;1913;50.660;7.834;2023-06-22T04:45:55;18.23;;;15.13;;
3795;SDS011;1913;50.660;7.834;2023-06-22T04:48:28;18.13;;;15.80;;
3795;SDS011;1913;50.660;7.834;2023-06-22T04:51:00;18.40;;;15.33;;
3795;SDS011;1913;50.660;7.834;2023-06-22T04:53:29;16.37;;;14.40;;
3795;SDS011;1913;50.660;7.834;2023-06-22T04:55:54;18.80;;;14.70;;
3795;SDS011;1913;50.660;7.834;2023-06-22T04:58:20;17.70;;;14.43;;
3795;SDS011;1913;50.660;7.834;2023-06-22T05:00:46;16.20;;;13.27;;
3795;SDS011;1913;50.660;7.834;2023-06-22T05:03:12;17.60;;;14.30;;
3795;SDS011;1913;50.660;7.834;2023-06-22T05:05:37;15.17;;;13.67;;
3795;SDS011;1913;50.660;7.834;2023-06-22T05:08:03;14.73;;;12.90;;
3795;SDS011;1913;50.660;7.834;2023-06-22T05:10:32;14.10;;;12.77;;
3795;SDS011;1913;50.660;7.834;2023-06-22T05:12:58;16.80;;;13.60;;
3795;SDS011;1913;50.660;7.834;2023-06-22T05:15:23;14.87;;;13.10;;
3795;SDS011;1913;50.660;7.834;2023-06-22T05:17:53;14.70;;;13.20;;
3795;SDS011;1913;50.660;7.834;2023-06-22T05:20:19;14.80;;;12.63;;
3795;SDS011;1913;50.660;7.834;2023-06-22T05:22:45;13.53;;;11.67;;
3795;SDS011;1913;50.660;7.834;2023-06-22T05:25:11;13.73;;;12.30;;
3795;SDS011;1913;50.660;7.834;2023-06-22T05:27:37;13.47;;;11.50;;
3795;SDS011;1913;50.660;7.834;2023-06-22T05:30:07;13.53;;;11.53;;
3795;SDS011;1913;50.660;7.834;2023-06-22T05:32:33;13.40;;;11.50;;
3795;SDS011;1913;50.660;7.834;2023-06-22T05:34:59;15.60;;;10.57;;
3795;SDS011;1913;50.660;7.834;2023-06-22T05:37:24;14.20;;;10.30;;
3795;SDS011;1913;50.660;7.834;2023-06-22T05:39:50;13.00;;;10.80;;
3795;SDS011;1913;50.660;7.834;2023-06-22T05:42:15;16.57;;;10.40;;
3795;SDS011;1913;50.660;7.834;2023-06-22T05:44:41;18.73;;;10.50;;
3795;SDS011;1913;50.660;7.834;2023-06-22T05:47:06;11.40;;;9.60;;
3795;SDS011;1913;50.660;7.834;2023-06-22T05:49:32;11.73;;;9.40;;
3795;SDS011;1913;50.660;7.834;2023-06-22T05:51:58;13.80;;;10.40;;
3795;SDS011;1913;50.660;7.834;2023-06-22T05:54:24;13.27;;;9.33;;
3795;SDS011;1913;50.660;7.834;2023-06-22T05:56:49;10.03;;;8.73;;
3795;SDS011;1913;50.660;7.834;2023-06-22T05:59:15;12.60;;;9.57;;
3795;SDS011;1913;50.660;7.834;2023-06-22T06:01:40;11.07;;;8.43;;
3795;SDS011;1913;50.660;7.834;2023-06-22T06:04:06;10.23;;;9.00;;
3795;SDS011;1913;50.660;7.834;2023-06-22T06:06:34;14.50;;;8.77;;
3795;SDS011;1913;50.660;7.834;2023-06-22T06:09:05;10.57;;;9.10;;
3795;SDS011;1913;50.660;7.834;2023-06-22T06:11:31;9.80;;;8.77;;
3795;SDS011;1913;50.660;7.834;2023-06-22T06:13:57;10.87;;;9.77;;
3795;SDS011;1913;50.660;7.834;2023-06-22T06:16:22;16.30;;;9.73;;
3795;SDS011;1913;50.660;7.834;2023-06-22T06:18:48;13.20;;;9.90;;
3795;SDS011;1913;50.660;7.834;2023-06-22T06:21:16;12.63;;;9.60;;
3795;SDS011;1913;50.660;7.834;2023-06-22T06:23:42;10.27;;;8.63;;
3795;SDS011;1913;50.660;7.834;2023-06-22T06:26:07;10.50;;;8.53;;
3795;SDS011;1913;50.660;7.834;2023-06-22T06:28:34;12.63;;;8.30;;
3795;SDS011;1913;50.660;7.834;2023-06-22T06:31:00;10.20;;;8.80;;
3795;SDS011;1913;50.660;7.834;2023-06-22T06:33:25;10.10;;;9.10;;
3795;SDS011;1913;50.660;7.834;2023-06-22T06:35:51;9.67;;;8.67;;
3795;SDS011;1913;50.660;7.834;2023-06-22T06:38:16;9.77;;;8.87;;
3795;SDS011;1913;50.660;7.834;2023-06-22T06:40:42;10.20;;;9.20;;
3795;SDS011;1913;50.660;7.834;2023-06-22T06:43:07;10.93;;;8.50;;
3795;SDS011;1913;50.660;7.834;2023-06-22T06:45:33;12.40;;;9.10;;
3795;SDS011;1913;50.660;7.834;2023-06-22T06:47:59;10.83;;;9.73;;
3795;SDS011;1913;50.660;7.834;2023-06-22T06:50:25;12.17;;;9.67;;
3795;SDS011;1913;50.660;7.834;2023-06-22T06:52:50;9.93;;;8.90;;
3795;SDS011;1913;50.660;7.834;2023-06-22T06:55:16;10.53;;;9.13;;
3795;SDS011;1913;50.660;7.834;2023-06-22T06:57:41;13.83;;;8.70;;
3795;SDS011;1913;50.660;7.834;2023-06-22T07:00:09;10.40;;;8.70;;
3795;SDS011;1913;50.660;7.834;2023-06-22T07:02:39;10.47;;;9.37;;
3795;SDS011;1913;50.660;7.834;2023-06-22T07:05:05;9.80;;;8.57;;
3795;SDS011;1913;50.660;7.834;2023-06-22T07:07:31;9.60;;;8.63;;
3795;SDS011;1913;50.660;7.834;2023-06-22T07:09:57;9.20;;;8.27;;
3795;SDS011;1913;50.660;7.834;2023-06-22T07:12:22;10.10;;;8.30;;
3795;SDS011;1913;50.660;7.834;2023-06-22T07:14:48;9.60;;;8.47;;
3795;SDS011;1913;50.660;7.834;2023-06-22T07:17:13;10.13;;;8.70;;
3795;SDS011;1913;50.660;7.834;2023-06-22T07:19:39;9.57;;;8.23;;
3795;SDS011;1913;50.660;7.834;2023-06-22T07:22:05;14.47;;;9.37;;
3795;SDS011;1913;50.660;7.834;2023-06-22T07:24:30;9.73;;;8.60;;
3795;SDS011;1913;50.660;7.834;2023-06-22T07:26:57;9.60;;;8.10;;
3795;SDS011;1913;50.660;7.834;2023-06-22T07:29:24;10.60;;;8.27;;
3795;SDS011;1913;50.660;7.834;2023-06-22T07:31:50;8.73;;;7.83;;
3795;SDS011;1913;50.660;7.834;2023-06-22T07:34:21;11.00;;;8.20;;
3795;SDS011;1913;50.660;7.834;2023-06-22T07:36:47;13.27;;;8.47;;
3795;SDS011;1913;50.660;7.834;2023-06-22T07:39:12;8.90;;;8.00;;
3795;SDS011;1913;50.660;7.834;2023-06-22T07:41:38;11.00;;;8.03;;
3795;SDS011;1913;50.660;7.834;2023-06-22T07:44:04;11.17;;;8.53;;
3795;SDS011;1913;50.660;7.834;2023-06-22T07:46:31;11.60;;;7.90;;
3795;SDS011;1913;50.660;7.834;2023-06-22T07:48:56;9.33;;;7.57;;
3795;SDS011;1913;50.660;7.834;2023-06-22T07:51:22;10.33;;;8.83;;
3795;SDS011;1913;50.660;7.834;2023-06-22T07:53:48;10.23;;;8.10;;
3795;SDS011;1913;50.660;7.834;2023-06-22T07:56:14;9.00;;;8.10;;
3795;SDS011;1913;50.660;7.834;2023-06-22T07:58:44;9.57;;;8.20;;
3795;SDS011;1913;50.660;7.834;2023-06-22T08:01:10;10.00;;;8.50;;
3795;SDS011;1913;50.660;7.834;2023-06-22T08:03:36;9.53;;;7.83;;
3795;SDS011;1913;50.660;7.834;2023-06-22T08:06:02;9.20;;;8.20;;
3795;SDS011;1913;50.660;7.834;2023-06-22T08:08:28;9.73;;;8.73;;
3795;SDS011;1913;50.660;7.834;2023-06-22T08:10:53;9.40;;;8.50;;
3795;SDS011;1913;50.660;7.834;2023-06-22T08:13:19;11.53;;;8.20;;
3795;SDS011;1913;50.660;7.834;2023-06-22T08:15:44;10.00;;;8.00;;
3795;SDS011;1913;50.660;7.834;2023-06-22T08:18:10;9.80;;;8.80;;
3795;SDS011;1913;50.660;7.834;2023-06-22T08:20:35;9.70;;;8.50;;
3795;SDS011;1913;50.660;7.834;2023-06-22T08:23:01;9.60;;;8.60;;
3795;SDS011;1913;50.660;7.834;2023-06-22T08:25:32;8.43;;;7.60;;
3795;SDS011;1913;50.660;7.834;2023-06-22T08:27:59;8.90;;;8.07;;
3795;SDS011;1913;50.660;7.834;2023-06-22T08:30:25;9.57;;;7.70;;
3795;SDS011;1913;50.660;7.834;2023-06-22T08:32:50;8.23;;;7.43;;
3795;SDS011;1913;50.660;7.834;2023-06-22T08:35:16;9.33;;;8.43;;
3795;SDS011;1913;50.660;7.834;2023-06-22T08:37:41;10.30;;;8.83;;
3795;SDS011;1913;50.660;7.834;2023-06-22T08:40:08;8.53;;;7.63;;
3795;SDS011;1913;50.660;7.834;2023-06-22T08:42:37;8.70;;;7.80;;
3795;SDS011;1913;50.660;7.834;2023-06-22T08:45:05;9.40;;;8.03;;
3795;SDS011;1913;50.660;7.834;2023-06-22T08:47:31;10.50;;;8.23;;
3795;SDS011;1913;50.660;7.834;2023-06-22T08:49:56;9.57;;;8.43;;
3795;SDS011;1913;50.660;7.834;2023-06-22T08:52:22;13.10;;;7.33;;
3795;SDS011;1913;50.660;7.834;2023-06-22T08:54:48;8.73;;;7.73;;
3795;SDS011;1913;50.660;7.834;2023-06-22T08:57:14;10.50;;;8.20;;
3795;SDS011;1913;50.660;7.834;2023-06-22T08:59:39;11.23;;;7.93;;
3795;SDS011;1913;50.660;7.834;2023-06-22T09:02:05;10.73;;;8.10;;
3795;SDS011;1913;50.660;7.834;2023-06-22T09:04:31;11.10;;;8.07;;
3795;SDS011;1913;50.660;7.834;2023-06-22T09:07:00;9.50;;;8.10;;
3795;SDS011;1913;50.660;7.834;2023-06-22T09:09:26;10.33;;;9.07;;
3795;SDS011;1913;50.660;7.834;2023-06-22T09:11:51;9.40;;;7.50;;
3795;SDS011;1913;50.660;7.834;2023-06-22T09:14:16;12.10;;;8.80;;
3795;SDS011;1913;50.660;7.834;2023-06-22T09:16:42;8.67;;;7.87;;
3795;SDS011;1913;50.660;7.834;2023-06-22T09:19:07;13.30;;;8.80;;
3795;SDS011;1913;50.660;7.834;2023-06-22T09:21:33;11.97;;;9.13;;
3795;SDS011;1913;50.660;7.834;2023-06-22T09:23:58;23.43;;;9.57;;
3795;SDS011;1913;50.660;7.834;2023-06-22T09:26:23;9.97;;;8.67;;
3795;SDS011;1913;50.660;7.834;2023-06-22T09:28:49;12.50;;;8.33;;
3795;SDS011;1913;50.660;7.834;2023-06-22T09:31:14;11.53;;;9.10;;
3795;SDS011;1913;50.660;7.834;2023-06-22T09:33:41;11.20;;;9.00;;
3795;SDS011;1913;50.660;7.834;2023-06-22T09:36:07;10.07;;;8.97;;
3795;SDS011;1913;50.660;7.834;2023-06-22T09:38:36;11.40;;;8.90;;
3795;SDS011;1913;50.660;7.834;2023-06-22T09:41:01;10.80;;;8.70;;
3795;SDS011;1913;50.660;7.834;2023-06-22T09:43:27;11.50;;;8.70;;
3795;SDS011;1913;50.660;7.834;2023-06-22T09:45:53;16.47;;;8.70;;
3795;SDS011;1913;50.660;7.834;2023-06-22T09:48:18;10.30;;;7.97;;
3795;SDS011;1913;50.660;7.834;2023-06-22T09:50:43;10.07;;;8.93;;
3795;SDS011;1913;50.660;7.834;2023-06-22T09:53:09;11.77;;;7.87;;
3795;SDS011;1913;50.660;7.834;2023-06-22T09:55:34;10.83;;;8.97;;
3795;SDS011;1913;50.660;7.834;2023-06-22T09:58:00;9.90;;;8.20;;
3795;SDS011;1913;50.660;7.834;2023-06-22T10:00:25;8.83;;;7.93;;
3795;SDS011;1913;50.660;7.834;2023-06-22T10:02:51;11.33;;;7.53;;
3795;SDS011;1913;50.660;7.834;2023-06-22T10:05:17;12.13;;;8.07;;
3795;SDS011;1913;50.660;7.834;2023-06-22T10:07:42;10.83;;;8.33;;
3795;SDS011;1913;50.660;7.834;2023-06-22T10:10:09;9.00;;;8.10;;
3795;SDS011;1913;50.660;7.834;2023-06-22T10:12:35;8.63;;;7.47;;
3795;SDS011;1913;50.660;7.834;2023-06-22T10:15:00;8.20;;;7.30;;
3795;SDS011;1913;50.660;7.834;2023-06-22T10:17:26;13.27;;;7.93;;
3795;SDS011;1913;50.660;7.834;2023-06-22T10:19:51;12.13;;;8.50;;
3795;SDS011;1913;50.660;7.834;2023-06-22T10:22:16;9.00;;;7.40;;
3795;SDS011;1913;50.660;7.834;2023-06-22T10:24:42;8.90;;;7.97;;
3795;SDS011;1913;50.660;7.834;2023-06-22T10:27:12;9.47;;;8.47;;
3795;SDS011;1913;50.660;7.834;2023-06-22T10:29:38;10.73;;;8.57;;
3795;SDS011;1913;50.660;7.834;2023-06-22T10:32:04;12.50;;;8.40;;
3795;SDS011;1913;50.660;7.834;2023-06-22T10:34:30;9.80;;;8.47;;
3795;SDS011;1913;50.660;7.834;2023-06-22T10:36:55;10.90;;;8.57;;
3795;SDS011;1913;50.660;7.834;2023-06-22T10:39:21;10.57;;;8.60;;
3795;SDS011;1913;50.660;7.834;2023-06-22T10:41:46;9.80;;;8.50;;
3795;SDS011;1913;50.660;7.834;2023-06-22T10:44:11;10.80;;;8.30;;
3795;SDS011;1913;50.660;7.834;2023-06-22T10:46:37;11.13;;;9.10;;
3795;SDS011;1913;50.660;7.834;2023-06-22T10:49:03;9.03;;;8.13;;
3795;SDS011;1913;50.660;7.834;2023-06-22T10:51:28;9.97;;;8.13;;
3795;SDS011;1913;50.660;7.834;2023-06-22T10:53:53;11.50;;;8.37;;
3795;SDS011;1913;50.660;7.834;2023-06-22T10:56:19;9.73;;;8.60;;
3795;SDS011;1913;50.660;7.834;2023-06-22T10:58:45;12.20;;;9.77;;
3795;SDS011;1913;50.660;7.834;2023-06-22T11:01:10;10.00;;;9.00;;
3795;SDS011;1913;50.660;7.834;2023-06-22T11:03:36;11.90;;;9.50;;
3795;SDS011;1913;50.660;7.834;2023-06-22T11:06:01;18.97;;;11.13;;
3795;SDS011;1913;50.660;7.834;2023-06-22T11:08:26;12.20;;;10.90;;
3795;SDS011;1913;50.660;7.834;2023-06-22T11:10:52;21.80;;;11.70;;
3795;SDS011;1913;50.660;7.834;2023-06-22T11:13:18;15.20;;;11.80;;
3795;SDS011;1913;50.660;7.834;2023-06-22T11:15:43;15.33;;;12.23;;
3795;SDS011;1913;50.660;7.834;2023-06-22T11:18:08;17.13;;;12.83;;
3795;SDS011;1913;50.660;7.834;2023-06-22T11:20:34;17.20;;;12.40;;
3795;SDS011;1913;50.660;7.834;2023-06-22T11:23:03;14.43;;;11.63;;
3795;SDS011;1913;50.660;7.834;2023-06-22T11:25:30;13.63;;;11.67;;
3795;SDS011;1913;50.660;7.834;2023-06-22T11:27:56;13.50;;;11.07;;
3795;SDS011;1913;50.660;7.834;2023-06-22T11:30:21;15.10;;;10.60;;
3795;SDS011;1913;50.660;7.834;2023-06-22T11:32:47;10.37;;;9.27;;
3795;SDS011;1913;50.660;7.834;2023-06-22T11:35:13;10.97;;;9.10;;
3795;SDS011;1913;50.660;7.834;2023-06-22T11:37:38;14.90;;;10.47;;
3795;SDS011;1913;50.660;7.834;2023-06-22T11:40:04;15.20;;;10.47;;
3795;SDS011;1913;50.660;7.834;2023-06-22T11:42:30;11.40;;;10.00;;
3795;SDS011;1913;50.660;7.834;2023-06-22T11:44:56;10.07;;;9.07;;
3795;SDS011;1913;50.660;7.834;2023-06-22T11:47:21;12.70;;;9.87;;
3795;SDS011;1913;50.660;7.834;2023-06-22T11:49:46;10.17;;;9.07;;
3795;SDS011;1913;50.660;7.834;2023-06-22T11:52:12;11.07;;;9.20;;
3795;SDS011;1913;50.660;7.834;2023-06-22T11:54:37;13.10;;;9.77;;
3795;SDS011;1913;50.660;7.834;2023-06-22T11:57:03;10.40;;;8.80;;
3795;SDS011;1913;50.660;7.834;2023-06-22T11:59:29;10.90;;;9.80;;
3795;SDS011;1913;50.660;7.834;2023-06-22T12:01:54;12.03;;;9.50;;
3795;SDS011;1913;50.660;7.834;2023-06-22T12:04:20;12.93;;;8.93;;
3795;SDS011;1913;50.660;7.834;2023-06-22T12:06:45;10.20;;;9.20;;
3795;SDS011;1913;50.660;7.834;2023-06-22T12:09:11;9.80;;;8.50;;
3795;SDS011;1913;50.660;7.834;2023-06-22T12:11:39;12.80;;;9.40;;
3795;SDS011;1913;50.660;7.834;2023-06-22T12:14:04;10.93;;;9.00;;
3795;SDS011;1913;50.660;7.834;2023-06-22T12:16:30;10.77;;;9.33;;
3795;SDS011;1913;50.660;7.834;2023-06-22T12:18:55;11.70;;;9.00;;
3795;SDS011;1913;50.660;7.834;2023-06-22T12:21:21;12.60;;;8.63;;
3795;SDS011;1913;50.660;7.834;2023-06-22T12:23:46;10.03;;;8.17;;
3795;SDS011;1913;50.660;7.834;2023-06-22T12:26:12;10.53;;;8.27;;
3795;SDS011;1913;50.660;7.834;2023-06-22T12:28:37;11.30;;;7.90;;
3795;SDS011;1913;50.660;7.834;2023-06-22T12:31:02;10.73;;;8.57;;
3795;SDS011;1913;50.660;7.834;2023-06-22T12:33:28;9.13;;;8.23;;
3795;SDS011;1913;50.660;7.834;2023-06-22T12:35:55;9.10;;;8.20;;
3795;SDS011;1913;50.660;7.834;2023-06-22T12:38:21;10.50;;;8.40;;
3795;SDS011;1913;50.660;7.834;2023-06-22T12:40:46;10.37;;;8.40;;
3795;SDS011;1913;50.660;7.834;2023-06-22T12:43:12;9.27;;;8.10;;
3795;SDS011;1913;50.660;7.834;2023-06-22T12:45:37;8.80;;;7.87;;
3795;SDS011;1913;50.660;7.834;2023-06-22T12:48:03;9.07;;;8.10;;
3795;SDS011;1913;50.660;7.834;2023-06-22T12:50:28;9.83;;;8.00;;
3795;SDS011;1913;50.660;7.834;2023-06-22T12:52:54;8.60;;;7.80;;
3795;SDS011;1913;50.660;7.834;2023-06-22T12:55:19;9.73;;;8.33;;
3795;SDS011;1913;50.660;7.834;2023-06-22T12:57:45;10.63;;;8.30;;
3795;SDS011;1913;50.660;7.834;2023-06-22T13:00:10;9.50;;;7.77;;
3795;SDS011;1913;50.660;7.834;2023-06-22T13:02:36;10.47;;;8.30;;
3795;SDS011;1913;50.660;7.834;2023-06-22T13:05:02;13.73;;;8.20;;
3795;SDS011;1913;50.660;7.834;2023-06-22T13:07:30;11.30;;;7.93;;
3795;SDS011;1913;50.660;7.834;2023-06-22T13:09:55;11.80;;;7.73;;
3795;SDS011;1913;50.660;7.834;2023-06-22T13:12:21;9.83;;;8.87;;
3795;SDS011;1913;50.660;7.834;2023-06-22T13:14:46;9.20;;;8.20;;
3795;SDS011;1913;50.660;7.834;2023-06-22T13:17:12;9.27;;;8.37;;
3795;SDS011;1913;50.660;7.834;2023-06-22T13:19:39;12.43;;;8.20;;
3795;SDS011;1913;50.660;7.834;2023-06-22T13:22:04;9.43;;;8.20;;
3795;SDS011;1913;50.660;7.834;2023-06-22T13:24:30;8.83;;;8.00;;
3795;SDS011;1913;50.660;7.834;2023-06-22T13:26:56;8.83;;;7.93;;
3795;SDS011;1913;50.660;7.834;2023-06-22T13:29:21;8.50;;;7.60;;
3795;SDS011;1913;50.660;7.834;2023-06-22T13:31:46;8.67;;;7.87;;
3795;SDS011;1913;50.660;7.834;2023-06-22T13:34:12;8.07;;;7.30;;
3795;SDS011;1913;50.660;7.834;2023-06-22T13:36:38;10.07;;;7.90;;
3795;SDS011;1913;50.660;7.834;2023-06-22T13:39:03;9.60;;;8.07;;
3795;SDS011;1913;50.660;7.834;2023-06-22T13:41:29;11.10;;;7.80;;
3795;SDS011;1913;50.660;7.834;2023-06-22T13:43:54;8.47;;;7.70;;
3795;SDS011;1913;50.660;7.834;2023-06-22T13:46:20;10.40;;;8.30;;
3795;SDS011;1913;50.660;7.834;2023-06-22T13:48:45;8.43;;;7.73;;
3795;SDS011;1913;50.660;7.834;2023-06-22T13:51:11;10.50;;;8.90;;
3795;SDS011;1913;50.660;7.834;2023-06-22T13:53:36;11.00;;;8.40;;
3795;SDS011;1913;50.660;7.834;2023-06-22T13:56:01;9.53;;;8.73;;
3795;SDS011;1913;50.660;7.834;2023-06-22T13:58:27;9.40;;;8.50;;
3795;SDS011;1913;50.660;7.834;2023-06-22T14:00:52;10.50;;;9.40;;
3795;SDS011;1913;50.660;7.834;2023-06-22T14:03:18;11.13;;;8.90;;
3795;SDS011;1913;50.660;7.834;2023-06-22T14:05:43;12.53;;;8.63;;
3795;SDS011;1913;50.660;7.834;2023-06-22T14:08:09;10.60;;;9.27;;
3795;SDS011;1913;50.660;7.834;2023-06-22T14:10:34;10.43;;;8.90;;
3795;SDS011;1913;50.660;7.834;2023-06-22T14:13:00;12.73;;;9.37;;
3795;SDS011;1913;50.660;7.834;2023-06-22T14:15:25;10.13;;;9.13;;
3795;SDS011;1913;50.660;7.834;2023-06-22T14:17:51;10.13;;;9.13;;
3795;SDS011;1913;50.660;7.834;2023-06-22T14:20:17;10.63;;;9.53;;
3795;SDS011;1913;50.660;7.834;2023-06-22T14:22:43;13.87;;;9.37;;
3795;SDS011;1913;50.660;7.834;2023-06-22T14:25:08;12.10;;;9.10;;
3795;SDS011;1913;50.660;7.834;2023-06-22T14:27:34;14.20;;;9.60;;
3795;SDS011;1913;50.660;7.834;2023-06-22T14:29:59;16.53;;;10.17;;
3795;SDS011;1913;50.660;7.834;2023-06-22T14:32:24;11.23;;;9.70;;
3795;SDS011;1913;50.660;7.834;2023-06-22T14:34:50;13.67;;;9.83;;
3795;SDS011;1913;50.660;7.834;2023-06-22T14:37:15;11.47;;;8.93;;
3795;SDS011;1913;50.660;7.834;2023-06-22T14:39:41;10.40;;;9.40;;
3795;SDS011;1913;50.660;7.834;2023-06-22T14:42:08;13.87;;;10.30;;
3795;SDS011;1913;50.660;7.834;2023-06-22T14:44:34;13.63;;;9.93;;
3795;SDS011;1913;50.660;7.834;2023-06-22T14:47:00;14.43;;;9.87;;
3795;SDS011;1913;50.660;7.834;2023-06-22T14:49:25;15.00;;;11.07;;
3795;SDS011;1913;50.660;7.834;2023-06-22T14:51:51;15.10;;;12.60;;
3795;SDS011;1913;50.660;7.834;2023-06-22T14:54:16;22.73;;;14.73;;